sensor_id;sensor_type;location;lat;lon;timestamp;pressure;altitude;pressure_sealevel;temperature;humidity
47670;BME280;33408;52.062;11.722;2023-09-18T00:01:02;100722.69;;;19.17;100.00
47670;BME280;33408;52.062;11.722;2023-09-18T00:03:31;100724.66;;;19.13;100.00
47670;BME280;33408;52.062;11.722;2023-09-18T00:05:58;100724.31;;;19.20;100.00
47670;BME280;33408;52.062;11.722;2023-09-18T00:08:25;100713.22;;;19.15;100.00
47670;BME280;33408;52.062;11.722;2023-09-18T00:10:53;100706.94;;;19.17;100.00
47670;BME280;33408;52.062;11.722;2023-09-18T00:13:20;100719.63;;;19.09;100.00
47670;BME280;33408;52.062;11.722;2023-09-18T00:15:46;100711.59;;;19.12;100.00
47670;BME280;33408;52.062;11.722;2023-09-18T00:18:16;100707.38;;;19.09;100.00
47670;BME280;33408;52.062;11.722;2023-09-18T00:20:43;100707.44;;;19.08;100.00
47670;BME280;33408;52.062;11.722;2023-09-18T00:23:13;100712.34;;;19.14;100.00
47670;BME280;33408;52.062;11.722;2023-09-18T00:25:41;100711.75;;;19.09;100.00
47670;BME280;33408;52.062;11.722;2023-09-18T00:28:07;100708.97;;;19.12;100.00
47670;BME280;33408;52.062;11.722;2023-09-18T00:30:34;100706.41;;;19.10;100.00
47670;BME280;33408;52.062;11.722;2023-09-18T00:33:01;100702.72;;;19.15;100.00
47670;BME280;33408;52.062;11.722;2023-09-18T00:35:29;100705.59;;;19.10;100.00
47670;BME280;33408;52.062;11.722;2023-09-18T00:37:56;100706.59;;;19.07;100.00
47670;BME280;33408;52.062;11.722;2023-09-18T00:40:22;100715.25;;;19.09;100.00
47670;BME280;33408;52.062;11.722;2023-09-18T00:42:49;100713.72;;;19.05;100.00
47670;BME280;33408;52.062;11.722;2023-09-18T00:45:16;100726.41;;;18.97;100.00
47670;BME280;33408;52.062;11.722;2023-09-18T00:47:43;100705.56;;;18.94;100.00
47670;BME280;33408;52.062;11.722;2023-09-18T00:50:11;100708.34;;;18.91;100.00
47670;BME280;33408;52.062;11.722;2023-09-18T00:52:41;100694.97;;;18.95;100.00
47670;BME280;33408;52.062;11.722;2023-09-18T00:55:08;100699.47;;;18.93;100.00
47670;BME280;33408;52.062;11.722;2023-09-18T00:57:37;100703.34;;;18.86;100.00
47670;BME280;33408;52.062;11.722;2023-09-18T01:00:05;100698.38;;;18.80;100.00
47670;BME280;33408;52.062;11.722;2023-09-18T01:02:32;100693.78;;;18.85;100.00
47670;BME280;33408;52.062;11.722;2023-09-18T01:04:59;100685.72;;;18.88;100.00
47670;BME280;33408;52.062;11.722;2023-09-18T01:07:25;100680.75;;;18.84;100.00
47670;BME280;33408;52.062;11.722;2023-09-18T01:09:55;100686.19;;;18.79;100.00
47670;BME280;33408;52.062;11.722;2023-09-18T01:12:24;100673.63;;;18.86;100.00
47670;BME280;33408;52.062;11.722;2023-09-18T01:14:55;100675.06;;;18.74;100.00
47670;BME280;33408;52.062;11.722;2023-09-18T01:17:23;100661.09;;;18.73;100.00
47670;BME280;33408;52.062;11.722;2023-09-18T01:19:50;100655.00;;;18.73;100.00
47670;BME280;33408;52.062;11.722;2023-09-18T01:22:18;100642.22;;;18.67;100.00
47670;BME280;33408;52.062;11.722;2023-09-18T01:24:47;100636.59;;;18.57;100.00
47670;BME280;33408;52.062;11.722;2023-09-18T01:27:15;100640.06;;;18.57;100.00
47670;BME280;33408;52.062;11.722;2023-09-18T01:29:42;100624.47;;;18.54;100.00
47670;BME280;33408;52.062;11.722;2023-09-18T01:32:09;100634.53;;;18.46;100.00
47670;BME280;33408;52.062;11.722;2023-09-18T01:34:37;100628.53;;;18.44;100.00
47670;BME280;33408;52.062;11.722;2023-09-18T01:37:07;100622.78;;;18.37;100.00
47670;BME280;33408;52.062;11.722;2023-09-18T01:39:35;100612.91;;;18.25;100.00
47670;BME280;33408;52.062;11.722;2023-09-18T01:42:05;100614.25;;;18.16;100.00
47670;BME280;33408;52.062;11.722;2023-09-18T01:44:32;100613.06;;;18.22;100.00
47670;BME280;33408;52.062;11.722;2023-09-18T01:47:01;100614.78;;;18.23;100.00
47670;BME280;33408;52.062;11.722;2023-09-18T01:49:29;100614.72;;;18.07;100.00
47670;BME280;33408;52.062;11.722;2023-09-18T01:51:56;100610.84;;;18.14;100.00
47670;BME280;33408;52.062;11.722;2023-09-18T01:54:23;100611.84;;;18.12;100.00
47670;BME280;33408;52.062;11.722;2023-09-18T01:56:50;100608.06;;;18.17;100.00
47670;BME280;33408;52.062;11.722;2023-09-18T01:59:18;100616.63;;;18.21;100.00
47670;BME280;33408;52.062;11.722;2023-09-18T02:01:45;100611.34;;;18.05;100.00
47670;BME280;33408;52.062;11.722;2023-09-18T02:04:11;100609.53;;;18.06;100.00
47670;BME280;33408;52.062;11.722;2023-09-18T02:06:38;100605.94;;;18.08;100.00
47670;BME280;33408;52.062;11.722;2023-09-18T02:09:05;100602.19;;;18.12;100.00
47670;BME280;33408;52.062;11.722;2023-09-18T02:11:32;100598.66;;;18.13;100.00
47670;BME280;33408;52.062;11.722;2023-09-18T02:13:59;100599.66;;;18.11;100.00
47670;BME280;33408;52.062;11.722;2023-09-18T02:16:27;100598.66;;;18.13;100.00
47670;BME280;33408;52.062;11.722;2023-09-18T02:18:54;100595.16;;;18.13;100.00
47670;BME280;33408;52.062;11.722;2023-09-18T02:21:22;100588.38;;;18.26;100.00
47670;BME280;33408;52.062;11.722;2023-09-18T02:23:49;100579.47;;;18.29;100.00
47670;BME280;33408;52.062;11.722;2023-09-18T02:26:16;100581.09;;;18.31;100.00
47670;BME280;33408;52.062;11.722;2023-09-18T02:28:43;100576.19;;;18.41;100.00
47670;BME280;33408;52.062;11.722;2023-09-18T02:31:10;100575.38;;;18.40;100.00
47670;BME280;33408;52.062;11.722;2023-09-18T02:33:38;100569.88;;;18.45;100.00
47670;BME280;33408;52.062;11.722;2023-09-18T02:36:05;100563.91;;;18.41;100.00
47670;BME280;33408;52.062;11.722;2023-09-18T02:38:32;100562.84;;;18.46;100.00
47670;BME280;33408;52.062;11.722;2023-09-18T02:40:59;100565.47;;;18.46;100.00
47670;BME280;33408;52.062;11.722;2023-09-18T02:43:25;100557.75;;;18.43;100.00
47670;BME280;33408;52.062;11.722;2023-09-18T02:45:52;100557.75;;;18.43;100.00
47670;BME280;33408;52.062;11.722;2023-09-18T02:48:19;100561.22;;;18.43;100.00
47670;BME280;33408;52.062;11.722;2023-09-18T02:50:47;100559.53;;;18.42;100.00
47670;BME280;33408;52.062;11.722;2023-09-18T02:53:17;100565.13;;;18.36;100.00
47670;BME280;33408;52.062;11.722;2023-09-18T02:55:44;100558.47;;;18.29;100.00
47670;BME280;33408;52.062;11.722;2023-09-18T02:58:11;100553.59;;;18.22;100.00
47670;BME280;33408;52.062;11.722;2023-09-18T03:00:41;100554.34;;;18.25;100.00
47670;BME280;33408;52.062;11.722;2023-09-18T03:03:08;100561.78;;;18.16;100.00
47670;BME280;33408;52.062;11.722;2023-09-18T03:05:35;100560.16;;;18.14;100.00
47670;BME280;33408;52.062;11.722;2023-09-18T03:08:03;100560.56;;;18.06;100.00
47670;BME280;33408;52.062;11.722;2023-09-18T03:10:32;100559.56;;;18.09;100.00
47670;BME280;33408;52.062;11.722;2023-09-18T03:12:59;100555.47;;;18.03;100.00
47670;BME280;33408;52.062;11.722;2023-09-18T03:15:26;100554.84;;;17.98;100.00
47670;BME280;33408;52.062;11.722;2023-09-18T03:17:52;100550.22;;;18.03;100.00
47670;BME280;33408;52.062;11.722;2023-09-18T03:20:22;100551.91;;;18.04;100.00
47670;BME280;33408;52.062;11.722;2023-09-18T03:22:49;100541.44;;;18.04;100.00
47670;BME280;33408;52.062;11.722;2023-09-18T03:25:17;100544.50;;;18.12;100.00
47670;BME280;33408;52.062;11.722;2023-09-18T03:27:43;100535.47;;;18.18;100.00
47670;BME280;33408;52.062;11.722;2023-09-18T03:30:10;100525.72;;;18.20;100.00
47670;BME280;33408;52.062;11.722;2023-09-18T03:32:40;100524.88;;;18.19;100.00
47670;BME280;33408;52.062;11.722;2023-09-18T03:35:08;100525.38;;;18.10;100.00
47670;BME280;33408;52.062;11.722;2023-09-18T03:37:40;100525.78;;;18.02;100.00
47670;BME280;33408;52.062;11.722;2023-09-18T03:40:08;100528.31;;;18.04;100.00
47670;BME280;33408;52.062;11.722;2023-09-18T03:42:36;100525.69;;;18.04;100.00
47670;BME280;33408;52.062;11.722;2023-09-18T03:45:05;100530.56;;;17.94;100.00
47670;BME280;33408;52.062;11.722;2023-09-18T03:47:33;100523.16;;;18.02;100.00
47670;BME280;33408;52.062;11.722;2023-09-18T03:50:00;100515.44;;;17.99;100.00
47670;BME280;33408;52.062;11.722;2023-09-18T03:52:27;100514.69;;;17.97;100.00
47670;BME280;33408;52.062;11.722;2023-09-18T03:54:54;100506.81;;;17.97;100.00
47670;BME280;33408;52.062;11.722;2023-09-18T03:57:20;100497.91;;;18.00;100.00
47670;BME280;33408;52.062;11.722;2023-09-18T03:59:48;100498.50;;;17.89;100.00
47670;BME280;33408;52.062;11.722;2023-09-18T04:02:15;100501.72;;;17.77;100.00
47670;BME280;33408;52.062;11.722;2023-09-18T04:04:41;100491.94;;;17.80;100.00
47670;BME280;33408;52.062;11.722;2023-09-18T04:07:09;100487.63;;;17.79;100.00
47670;BME280;33408;52.062;11.722;2023-09-18T04:09:36;100484.50;;;17.73;100.00
47670;BME280;33408;52.062;11.722;2023-09-18T04:12:05;100488.63;;;17.77;100.00
47670;BME280;33408;52.062;11.722;2023-09-18T04:14:32;100487.09;;;17.73;100.00
47670;BME280;33408;52.062;11.722;2023-09-18T04:17:00;100480.41;;;17.67;100.00
47670;BME280;33408;52.062;11.722;2023-09-18T04:19:27;100476.06;;;17.66;100.00
47670;BME280;33408;52.062;11.722;2023-09-18T04:21:53;100475.84;;;17.71;100.00
47670;BME280;33408;52.062;11.722;2023-09-18T04:24:20;100478.06;;;17.78;100.00
47670;BME280;33408;52.062;11.722;2023-09-18T04:26:47;100479.41;;;17.70;100.00
47670;BME280;33408;52.062;11.722;2023-09-18T04:29:16;100473.91;;;17.74;100.00
47670;BME280;33408;52.062;11.722;2023-09-18T04:31:42;100467.53;;;17.62;100.00
47670;BME280;33408;52.062;11.722;2023-09-18T04:34:10;100460.41;;;17.64;100.00
47670;BME280;33408;52.062;11.722;2023-09-18T04:36:37;100462.34;;;17.61;100.00
47670;BME280;33408;52.062;11.722;2023-09-18T04:39:05;100458.81;;;17.62;100.00
47670;BME280;33408;52.062;11.722;2023-09-18T04:41:31;100454.03;;;17.70;100.00
47670;BME280;33408;52.062;11.722;2023-09-18T04:43:59;100441.50;;;17.75;100.00
47670;BME280;33408;52.062;11.722;2023-09-18T04:46:25;100446.06;;;17.72;100.00
47670;BME280;33408;52.062;11.722;2023-09-18T04:48:52;100439.84;;;17.74;100.00
47670;BME280;33408;52.062;11.722;2023-09-18T04:51:20;100445.91;;;17.75;100.00
47670;BME280;33408;52.062;11.722;2023-09-18T04:53:46;100441.50;;;17.75;100.00
47670;BME280;33408;52.062;11.722;2023-09-18T04:56:13;100439.91;;;17.73;100.00
47670;BME280;33408;52.062;11.722;2023-09-18T04:58:40;100426.72;;;17.74;100.00
47670;BME280;33408;52.062;11.722;2023-09-18T05:01:06;100428.47;;;17.74;100.00
47670;BME280;33408;52.062;11.722;2023-09-18T05:03:34;100424.53;;;17.82;100.00
47670;BME280;33408;52.062;11.722;2023-09-18T05:06:02;100417.31;;;17.70;100.00
47670;BME280;33408;52.062;11.722;2023-09-18T05:08:30;100418.66;;;17.77;100.00
47670;BME280;33408;52.062;11.722;2023-09-18T05:10:57;100418.50;;;17.80;100.00
47670;BME280;33408;52.062;11.722;2023-09-18T05:13:23;100412.28;;;17.83;100.00
47670;BME280;33408;52.062;11.722;2023-09-18T05:15:50;100414.13;;;17.81;100.00
47670;BME280;33408;52.062;11.722;2023-09-18T05:18:17;100415.66;;;17.85;100.00
47670;BME280;33408;52.062;11.722;2023-09-18T05:20:43;100417.72;;;17.96;100.00
47670;BME280;33408;52.062;11.722;2023-09-18T05:23:10;100408.94;;;17.97;100.00
47670;BME280;33408;52.062;11.722;2023-09-18T05:25:38;100413.56;;;17.92;100.00
47670;BME280;33408;52.062;11.722;2023-09-18T05:28:07;100399.88;;;18.02;100.00
47670;BME280;33408;52.062;11.722;2023-09-18T05:30:35;100406.31;;;17.97;100.00
47670;BME280;33408;52.062;11.722;2023-09-18T05:33:04;100409.28;;;18.07;100.00
47670;BME280;33408;52.062;11.722;2023-09-18T05:35:31;100404.38;;;18.16;100.00
47670;BME280;33408;52.062;11.722;2023-09-18T05:37:58;100385.06;;;18.17;100.00
47670;BME280;33408;52.062;11.722;2023-09-18T05:40:25;100376.94;;;18.06;100.00
47670;BME280;33408;52.062;11.722;2023-09-18T05:42:55;100379.66;;;18.04;100.00
47670;BME280;33408;52.062;11.722;2023-09-18T05:45:22;100379.31;;;18.27;100.00
47670;BME280;33408;52.062;11.722;2023-09-18T05:47:49;100374.88;;;18.27;100.00
47670;BME280;33408;52.062;11.722;2023-09-18T05:50:16;100375.13;;;18.38;100.00
47670;BME280;33408;52.062;11.722;2023-09-18T05:52:43;100370.31;;;18.47;100.00
47670;BME280;33408;52.062;11.722;2023-09-18T05:55:11;100361.53;;;18.62;100.00
47670;BME280;33408;52.062;11.722;2023-09-18T05:57:38;100353.78;;;18.75;100.00
47670;BME280;33408;52.062;11.722;2023-09-18T06:00:07;100353.69;;;18.92;100.00
47670;BME280;33408;52.062;11.722;2023-09-18T06:02:38;100351.63;;;18.98;100.00
47670;BME280;33408;52.062;11.722;2023-09-18T06:05:05;100344.78;;;18.95;100.00
47670;BME280;33408;52.062;11.722;2023-09-18T06:07:32;100340.38;;;19.10;100.00
47670;BME280;33408;52.062;11.722;2023-09-18T06:09:59;100341.50;;;19.06;100.00
47670;BME280;33408;52.062;11.722;2023-09-18T06:12:26;100338.69;;;19.38;100.00
47670;BME280;33408;52.062;11.722;2023-09-18T06:14:52;100336.63;;;19.28;100.00
47670;BME280;33408;52.062;11.722;2023-09-18T06:17:20;100334.75;;;19.45;100.00
47670;BME280;33408;52.062;11.722;2023-09-18T06:19:47;100332.00;;;19.61;100.00
47670;BME280;33408;52.062;11.722;2023-09-18T06:22:14;100323.72;;;19.67;100.00
47670;BME280;33408;52.062;11.722;2023-09-18T06:24:41;100313.84;;;19.85;100.00
47670;BME280;33408;52.062;11.722;2023-09-18T06:27:08;100308.59;;;19.85;100.00
47670;BME280;33408;52.062;11.722;2023-09-18T06:29:36;100302.16;;;20.03;100.00
47670;BME280;33408;52.062;11.722;2023-09-18T06:32:04;100310.03;;;20.03;100.00
47670;BME280;33408;52.062;11.722;2023-09-18T06:34:33;100307.47;;;20.16;100.00
47670;BME280;33408;52.062;11.722;2023-09-18T06:37:00;100317.78;;;20.19;100.00
47670;BME280;33408;52.062;11.722;2023-09-18T06:39:26;100317.09;;;20.30;100.00
47670;BME280;33408;52.062;11.722;2023-09-18T06:41:53;100320.38;;;20.47;100.00
47670;BME280;33408;52.062;11.722;2023-09-18T06:44:19;100331.13;;;20.44;100.00
47670;BME280;33408;52.062;11.722;2023-09-18T06:46:48;100344.22;;;20.58;100.00
47670;BME280;33408;52.062;11.722;2023-09-18T06:49:15;100344.50;;;20.81;100.00
47670;BME280;33408;52.062;11.722;2023-09-18T06:51:43;100340.06;;;21.07;100.00
47670;BME280;33408;52.062;11.722;2023-09-18T06:54:09;100326.38;;;21.15;100.00
47670;BME280;33408;52.062;11.722;2023-09-18T06:56:36;100322.69;;;21.30;100.00
47670;BME280;33408;52.062;11.722;2023-09-18T06:59:03;100308.13;;;21.24;100.00
47670;BME280;33408;52.062;11.722;2023-09-18T07:01:29;100299.16;;;21.53;100.00
47670;BME280;33408;52.062;11.722;2023-09-18T07:03:57;100291.75;;;21.58;100.00
47670;BME280;33408;52.062;11.722;2023-09-18T07:06:25;100284.06;;;21.79;100.00
47670;BME280;33408;52.062;11.722;2023-09-18T07:08:53;100281.41;;;21.55;100.00
47670;BME280;33408;52.062;11.722;2023-09-18T07:11:19;100273.38;;;21.43;100.00
47670;BME280;33408;52.062;11.722;2023-09-18T07:13:46;100258.56;;;21.66;100.00
47670;BME280;33408;52.062;11.722;2023-09-18T07:16:12;100258.28;;;21.45;100.00
47670;BME280;33408;52.062;11.722;2023-09-18T07:18:39;100248.19;;;21.76;100.00
47670;BME280;33408;52.062;11.722;2023-09-18T07:21:07;100243.88;;;21.75;100.00
47670;BME280;33408;52.062;11.722;2023-09-18T07:23:34;100241.69;;;21.93;100.00
47670;BME280;33408;52.062;11.722;2023-09-18T07:26:03;100255.09;;;22.26;100.00
47670;BME280;33408;52.062;11.722;2023-09-18T07:28:31;100268.06;;;22.53;100.00
47670;BME280;33408;52.062;11.722;2023-09-18T07:31:04;100267.69;;;22.46;100.00
47670;BME280;33408;52.062;11.722;2023-09-18T07:33:31;100260.97;;;22.53;100.00
47670;BME280;33408;52.062;11.722;2023-09-18T07:35:57;100250.16;;;22.45;100.00
47670;BME280;33408;52.062;11.722;2023-09-18T07:38:24;100253.53;;;22.70;99.83
47670;BME280;33408;52.062;11.722;2023-09-18T07:40:51;100247.66;;;22.77;98.47
47670;BME280;33408;52.062;11.722;2023-09-18T07:43:20;100249.69;;;22.51;98.79
47670;BME280;33408;52.062;11.722;2023-09-18T07:45:49;100257.41;;;22.77;98.08
47670;BME280;33408;52.062;11.722;2023-09-18T07:48:15;100259.66;;;22.59;99.41
47670;BME280;33408;52.062;11.722;2023-09-18T07:50:45;100269.75;;;22.65;99.93
47670;BME280;33408;52.062;11.722;2023-09-18T07:53:14;100278.56;;;22.88;99.68
47670;BME280;33408;52.062;11.722;2023-09-18T07:55:41;100276.59;;;22.68;100.00
47670;BME280;33408;52.062;11.722;2023-09-18T07:58:07;100270.09;;;22.49;99.87
47670;BME280;33408;52.062;11.722;2023-09-18T08:00:36;100262.06;;;22.62;100.00
47670;BME280;33408;52.062;11.722;2023-09-18T08:03:03;100256.66;;;22.52;100.00
47670;BME280;33408;52.062;11.722;2023-09-18T08:05:29;100252.56;;;22.48;100.00
47670;BME280;33408;52.062;11.722;2023-09-18T08:07:57;100249.69;;;22.51;100.00
47670;BME280;33408;52.062;11.722;2023-09-18T08:10:24;100252.56;;;22.48;100.00
47670;BME280;33408;52.062;11.722;2023-09-18T08:12:51;100248.09;;;22.49;100.00
47670;BME280;33408;52.062;11.722;2023-09-18T08:15:19;100238.44;;;22.72;100.00
47670;BME280;33408;52.062;11.722;2023-09-18T08:17:47;100248.25;;;22.58;100.00
47670;BME280;33408;52.062;11.722;2023-09-18T08:20:14;100249.22;;;22.69;100.00
47670;BME280;33408;52.062;11.722;2023-09-18T08:22:41;100250.53;;;22.74;98.48
47670;BME280;33408;52.062;11.722;2023-09-18T08:25:08;100244.44;;;22.97;97.72
47670;BME280;33408;52.062;11.722;2023-09-18T08:27:37;100226.28;;;23.03;96.82
47670;BME280;33408;52.062;11.722;2023-09-18T08:30:06;100237.59;;;23.17;96.52
47670;BME280;33408;52.062;11.722;2023-09-18T08:32:35;100252.13;;;22.88;100.00
47670;BME280;33408;52.062;11.722;2023-09-18T08:35:03;100241.44;;;22.90;97.96
47670;BME280;33408;52.062;11.722;2023-09-18T08:37:30;100235.78;;;23.06;97.37
47670;BME280;33408;52.062;11.722;2023-09-18T08:39:56;100258.00;;;22.92;98.82
47670;BME280;33408;52.062;11.722;2023-09-18T08:42:25;100265.81;;;22.93;98.23
47670;BME280;33408;52.062;11.722;2023-09-18T08:44:53;100256.69;;;22.86;97.79
47670;BME280;33408;52.062;11.722;2023-09-18T08:47:20;100254.66;;;22.90;96.89
47670;BME280;33408;52.062;11.722;2023-09-18T08:49:48;100258.63;;;23.18;96.67
47670;BME280;33408;52.062;11.722;2023-09-18T08:52:17;100264.13;;;23.04;95.24
47670;BME280;33408;52.062;11.722;2023-09-18T08:54:44;100278.34;;;23.14;95.57
47670;BME280;33408;52.062;11.722;2023-09-18T08:57:12;100278.00;;;23.30;97.87
47670;BME280;33408;52.062;11.722;2023-09-18T08:59:39;100260.91;;;23.23;95.78
47670;BME280;33408;52.062;11.722;2023-09-18T09:02:06;100256.06;;;23.39;95.18
47670;BME280;33408;52.062;11.722;2023-09-18T09:04:36;100250.53;;;23.42;96.06
47670;BME280;33408;52.062;11.722;2023-09-18T09:07:03;100251.66;;;23.40;96.53
47670;BME280;33408;52.062;11.722;2023-09-18T09:09:31;100256.06;;;23.39;95.84
47670;BME280;33408;52.062;11.722;2023-09-18T09:11:58;100250.63;;;23.52;96.05
47670;BME280;33408;52.062;11.722;2023-09-18T09:14:25;100245.72;;;23.59;94.68
47670;BME280;33408;52.062;11.722;2023-09-18T09:16:55;100250.25;;;23.68;94.74
47670;BME280;33408;52.062;11.722;2023-09-18T09:19:28;100261.50;;;23.49;96.57
47670;BME280;33408;52.062;11.722;2023-09-18T09:21:56;100254.94;;;23.64;94.70
47670;BME280;33408;52.062;11.722;2023-09-18T09:24:37;100248.47;;;23.69;95.77
47670;BME280;33408;52.062;11.722;2023-09-18T09:27:04;100260.28;;;23.97;94.13
47670;BME280;33408;52.062;11.722;2023-09-18T09:29:31;100254.63;;;24.23;93.30
47670;BME280;33408;52.062;11.722;2023-09-18T09:32:12;100250.94;;;24.14;94.62
47670;BME280;33408;52.062;11.722;2023-09-18T09:34:40;100253.69;;;23.91;95.54
47670;BME280;33408;52.062;11.722;2023-09-18T09:37:07;100248.34;;;23.70;97.32
47670;BME280;33408;52.062;11.722;2023-09-18T09:39:34;100240.63;;;23.67;96.46
47670;BME280;33408;52.062;11.722;2023-09-18T09:42:02;100236.00;;;23.80;95.03
47670;BME280;33408;52.062;11.722;2023-09-18T09:44:31;100240.97;;;23.74;94.69
47670;BME280;33408;52.062;11.722;2023-09-18T09:46:59;100241.84;;;23.63;96.06
47670;BME280;33408;52.062;11.722;2023-09-18T09:49:26;100242.25;;;23.79;97.75
47670;BME280;33408;52.062;11.722;2023-09-18T09:51:54;100235.44;;;23.77;96.70
47670;BME280;33408;52.062;11.722;2023-09-18T09:54:32;100230.06;;;23.67;96.74
47670;BME280;33408;52.062;11.722;2023-09-18T09:57:03;100224.06;;;23.54;97.23
47670;BME280;33408;52.062;11.722;2023-09-18T09:59:30;100231.91;;;23.44;98.76
47670;BME280;33408;52.062;11.722;2023-09-18T10:01:58;100240.97;;;23.30;100.00
47670;BME280;33408;52.062;11.722;2023-09-18T10:04:27;100251.44;;;23.20;100.00
47670;BME280;33408;52.062;11.722;2023-09-18T10:06:58;100241.91;;;23.06;100.00
47670;BME280;33408;52.062;11.722;2023-09-18T10:09:34;100247.44;;;23.03;100.00
47670;BME280;33408;52.062;11.722;2023-09-18T10:12:06;100239.88;;;23.21;100.00
47670;BME280;33408;52.062;11.722;2023-09-18T10:14:36;100230.75;;;23.25;100.00
47670;BME280;33408;52.062;11.722;2023-09-18T10:17:13;100228.34;;;23.22;100.00
47670;BME280;33408;52.062;11.722;2023-09-18T10:19:45;100235.69;;;23.19;100.00
47670;BME280;33408;52.062;11.722;2023-09-18T10:22:22;100231.81;;;23.34;100.00
47670;BME280;33408;52.062;11.722;2023-09-18T10:24:55;100228.06;;;23.48;100.00
47670;BME280;33408;52.062;11.722;2023-09-18T10:27:27;100222.19;;;23.77;100.00
47670;BME280;33408;52.062;11.722;2023-09-18T10:29:57;100220.50;;;23.76;100.00
47670;BME280;33408;52.062;11.722;2023-09-18T10:32:25;100212.75;;;23.95;100.00
47670;BME280;33408;52.062;11.722;2023-09-18T10:34:53;100211.88;;;24.27;97.71
47670;BME280;33408;52.062;11.722;2023-09-18T10:37:21;100214.91;;;24.23;95.54
47670;BME280;33408;52.062;11.722;2023-09-18T10:39:49;100200.56;;;24.46;93.74
47670;BME280;33408;52.062;11.722;2023-09-18T10:42:18;100207.72;;;24.55;91.55
47670;BME280;33408;52.062;11.722;2023-09-18T10:44:48;100208.06;;;24.62;93.26
47670;BME280;33408;52.062;11.722;2023-09-18T10:47:15;100210.53;;;24.85;91.12
47670;BME280;33408;52.062;11.722;2023-09-18T10:49:43;100213.06;;;24.96;90.46
47670;BME280;33408;52.062;11.722;2023-09-18T10:52:11;100215.50;;;25.09;90.22
47670;BME280;33408;52.062;11.722;2023-09-18T10:54:38;100200.28;;;25.11;90.84
47670;BME280;33408;52.062;11.722;2023-09-18T10:57:05;100197.09;;;25.17;89.01
47670;BME280;33408;52.062;11.722;2023-09-18T10:59:32;100197.50;;;25.22;88.29
47670;BME280;33408;52.062;11.722;2023-09-18T11:02:03;100186.56;;;24.96;89.31
47670;BME280;33408;52.062;11.722;2023-09-18T11:04:31;100188.53;;;24.94;89.79
47670;BME280;33408;52.062;11.722;2023-09-18T11:07:02;100175.16;;;25.05;88.70
47670;BME280;33408;52.062;11.722;2023-09-18T11:09:31;100179.88;;;25.02;88.56
47670;BME280;33408;52.062;11.722;2023-09-18T11:12:03;100182.25;;;25.05;89.26
47670;BME280;33408;52.062;11.722;2023-09-18T11:14:47;100195.06;;;24.90;90.68
47670;BME280;33408;52.062;11.722;2023-09-18T11:17:32;100190.28;;;24.84;92.81
47670;BME280;33408;52.062;11.722;2023-09-18T11:20:07;100194.78;;;24.93;93.82
47670;BME280;33408;52.062;11.722;2023-09-18T11:22:39;100196.53;;;24.73;95.42
47670;BME280;33408;52.062;11.722;2023-09-18T11:25:34;100194.47;;;24.55;95.87
47670;BME280;33408;52.062;11.722;2023-09-18T11:28:03;100200.25;;;24.61;95.78
47670;BME280;33408;52.062;11.722;2023-09-18T11:30:32;100204.63;;;24.71;95.62
47670;BME280;33408;52.062;11.722;2023-09-18T11:33:03;100205.19;;;24.75;96.00
47670;BME280;33408;52.062;11.722;2023-09-18T11:35:31;100208.91;;;25.03;94.45
47670;BME280;33408;52.062;11.722;2023-09-18T11:38:06;100203.09;;;24.79;95.82
47670;BME280;33408;52.062;11.722;2023-09-18T11:40:37;100207.88;;;24.85;94.09
47670;BME280;33408;52.062;11.722;2023-09-18T11:43:21;100211.91;;;24.89;94.73
47670;BME280;33408;52.062;11.722;2023-09-18T11:45:53;100209.88;;;24.92;96.36
47670;BME280;33408;52.062;11.722;2023-09-18T11:48:22;100199.72;;;24.67;98.32
47670;BME280;33408;52.062;11.722;2023-09-18T11:50:53;100203.28;;;24.87;97.78
47670;BME280;33408;52.062;11.722;2023-09-18T11:53:20;100193.81;;;24.94;98.73
47670;BME280;33408;52.062;11.722;2023-09-18T11:55:48;100202.59;;;24.94;99.94
47670;BME280;33408;52.062;11.722;2023-09-18T11:58:14;100204.16;;;24.97;100.00
47670;BME280;33408;52.062;11.722;2023-09-18T12:00:41;100188.84;;;25.10;98.44
47670;BME280;33408;52.062;11.722;2023-09-18T12:03:18;100191.06;;;25.05;98.46
47670;BME280;33408;52.062;11.722;2023-09-18T12:05:53;100182.53;;;25.11;97.85
47670;BME280;33408;52.062;11.722;2023-09-18T12:08:21;100182.16;;;25.26;96.54
47670;BME280;33408;52.062;11.722;2023-09-18T12:10:49;100191.44;;;25.41;95.45
47670;BME280;33408;52.062;11.722;2023-09-18T12:13:16;100189.34;;;25.55;95.80
47670;BME280;33408;52.062;11.722;2023-09-18T12:15:43;100189.34;;;25.84;94.77
47670;BME280;33408;52.062;11.722;2023-09-18T12:18:10;100182.66;;;26.09;92.20
47670;BME280;33408;52.062;11.722;2023-09-18T12:20:44;100174.34;;;26.32;88.44
47670;BME280;33408;52.062;11.722;2023-09-18T12:23:12;100178.47;;;26.54;86.55
47670;BME280;33408;52.062;11.722;2023-09-18T12:25:39;100175.84;;;26.44;84.55
47670;BME280;33408;52.062;11.722;2023-09-18T12:28:06;100171.50;;;26.43;81.47
47670;BME280;33408;52.062;11.722;2023-09-18T12:30:34;100178.84;;;26.31;81.09
47670;BME280;33408;52.062;11.722;2023-09-18T12:33:00;100177.34;;;26.09;79.34
47670;BME280;33408;52.062;11.722;2023-09-18T12:35:29;100172.72;;;26.01;78.74
47670;BME280;33408;52.062;11.722;2023-09-18T12:37:57;100175.66;;;25.98;77.93